Time;durP1;ratioP1;P1;durP2;ratioP2;P2;SDS_P1;SDS_P2;PMS_P1;PMS_P2;Temp;Humidity;BMP_temperature;BMP_pressure;BME280_temperature;BME280_humidity;BME280_pressure;Samples;Min_cycle;Max_cycle;Signal;HPM_P1;HPM_P2
2023/10/23 00:00:44;;;;;;;16.37;11.70;;;;;;;22.46;55.91;99814.80;1792348;80;21312;-81
2023/10/23 00:03:50;;;;;;;24.10;11.80;;;;;;;22.39;56.16;99809.98;1785399;80;21280;-81
2023/10/23 00:06:56;;;;;;;25.65;13.32;;;;;;;22.57;55.62;99817.94;1772442;80;21959;-82
2023/10/23 00:10:03;;;;;;;28.38;14.35;;;;;;;22.53;55.93;99814.00;1762654;81;21296;-81
2023/10/23 00:13:09;;;;;;;28.15;16.95;;;;;;;22.47;56.19;99805.88;1762788;81;21284;-81
2023/10/23 00:16:14;;;;;;;30.10;15.30;;;;;;;22.35;56.91;99813.05;1778554;80;21272;-81
2023/10/23 00:19:21;;;;;;;33.55;15.35;;;;;;;21.95;57.89;99812.36;1763080;81;21830;-81
2023/10/23 00:22:26;;;;;;;18.60;12.37;;;;;;;22.24;57.29;99807.92;1767933;80;21303;-81
2023/10/23 00:25:31;;;;;;;29.35;13.55;;;;;;;22.69;56.04;99813.58;1770312;81;21315;-81
2023/10/23 00:28:36;;;;;;;23.05;11.25;;;;;;;22.55;56.26;99802.05;1773194;81;21304;-80
2023/10/23 00:31:34;;;;;;;28.38;13.00;;;;;;;22.18;57.37;99793.11;1780667;80;21296;-82
2023/10/23 00:34:27;;;;;;;41.50;18.87;;;;;;;22.36;56.94;99785.47;1785139;80;21830;-81
2023/10/23 00:37:34;;;;;;;30.07;17.30;;;;;;;22.40;56.95;99778.26;1785445;80;21818;-81
2023/10/23 00:40:39;;;;;;;24.55;15.60;;;;;;;22.66;56.20;99778.70;1785107;80;21929;-81
2023/10/23 00:43:44;;;;;;;19.20;12.37;;;;;;;22.57;56.47;99772.52;1785110;80;21276;-81
2023/10/23 00:46:49;;;;;;;19.77;11.53;;;;;;;22.57;56.50;99769.73;1761946;80;21299;-81
2023/10/23 00:49:56;;;;;;;12.80;8.90;;;;;;;22.26;57.26;99772.30;1767262;81;21841;-81
2023/10/23 00:53:02;;;;;;;12.80;9.33;;;;;;;22.04;57.89;99775.69;1732500;82;21293;-80
2023/10/23 00:56:07;;;;;;;15.40;9.78;;;;;;;22.08;57.91;99771.27;1732640;82;21305;-81
2023/10/23 00:59:13;;;;;;;12.55;9.65;;;;;;;22.16;57.73;99763.83;1722851;82;21847;-80
2023/10/23 01:02:18;;;;;;;13.05;9.70;;;;;;;22.19;57.67;99769.72;1765219;79;21316;-81
2023/10/23 01:05:24;;;;;;;18.15;10.88;;;;;;;22.24;57.82;99775.89;1673988;85;21324;-81
2023/10/23 01:08:31;;;;;;;31.27;13.83;;;;;;;22.26;57.91;99783.44;1669003;85;21383;-81
2023/10/23 01:11:37;;;;;;;21.75;14.35;;;;;;;22.50;57.56;99783.91;1694588;84;21893;-80
2023/10/23 01:14:43;;;;;;;19.42;12.07;;;;;;;22.79;57.30;99776.56;1739355;81;21315;-80
2023/10/23 01:17:50;;;;;;;19.05;11.65;;;;;;;22.55;57.63;99770.56;1746914;82;21316;-80
2023/10/23 01:20:56;;;;;;;17.17;11.08;;;;;;;22.38;58.18;99759.56;1724086;83;21882;-81
2023/10/23 01:24:02;;;;;;;14.73;9.93;;;;;;;22.49;57.90;99766.91;1685785;85;21341;-81
2023/10/23 01:27:07;;;;;;;15.72;9.65;;;;;;;22.41;58.15;99768.23;1670053;84;21300;-81
2023/10/23 01:30:13;;;;;;;14.38;8.65;;;;;;;22.39;58.41;99766.25;1723583;81;21285;-80
2023/10/23 01:33:19;;;;;;;16.00;9.40;;;;;;;22.50;58.24;99764.40;1762564;81;21276;-80
2023/10/23 01:36:24;;;;;;;14.53;9.63;;;;;;;22.58;57.89;99754.12;1762507;81;21944;-81
2023/10/23 01:39:30;;;;;;;13.15;9.78;;;;;;;22.54;58.05;99740.47;1760515;81;22249;-81
2023/10/23 01:42:35;;;;;;;20.60;10.35;;;;;;;22.36;58.73;99743.67;1759677;81;21332;-81
2023/10/23 01:45:41;;;;;;;17.50;10.20;;;;;;;22.55;58.23;99742.69;1760712;81;21269;-81
2023/10/23 01:48:48;;;;;;;18.37;10.35;;;;;;;22.39;58.62;99737.55;1757984;81;21802;-81
2023/10/23 01:51:54;;;;;;;24.47;10.45;;;;;;;22.41;58.49;99731.17;1741222;81;21300;-81
2023/10/23 01:55:01;;;;;;;11.90;8.13;;;;;;;22.41;58.77;99738.98;1735581;82;21368;-81
2023/10/23 01:58:06;;;;;;;18.40;8.75;;;;;;;22.77;58.08;99739.73;1735600;82;21288;-81
2023/10/23 02:01:13;;;;;;;14.75;9.05;;;;;;;22.77;58.13;99753.12;1734640;81;21288;-81
2023/10/23 02:04:20;;;;;;;9.30;7.12;;;;;;;22.65;58.47;99778.98;1686987;84;21864;-81
2023/10/23 02:07:27;;;;;;;27.40;9.80;;;;;;;22.66;58.57;99777.31;1722479;83;21336;-80
2023/10/23 02:10:34;;;;;;;12.85;8.50;;;;;;;22.91;57.71;99762.73;1730708;83;21960;-80
2023/10/23 02:13:41;;;;;;;14.00;8.48;;;;;;;22.55;58.62;99748.27;1731688;83;21929;-81
2023/10/23 02:16:47;;;;;;;18.30;8.50;;;;;;;22.86;57.72;99738.11;1732469;82;21370;-81
2023/10/23 02:19:53;;;;;;;10.32;7.92;;;;;;;22.75;58.09;99730.81;1733189;82;21315;-79
2023/10/23 02:23:00;;;;;;;14.38;7.78;;;;;;;22.88;57.59;99734.52;1733166;82;21309;-81
2023/10/23 02:26:05;;;;;;;11.68;8.23;;;;;;;22.53;58.26;99729.01;1731976;82;21300;-81
2023/10/23 02:29:12;;;;;;;19.70;8.70;;;;;;;22.64;58.21;99730.77;1730497;82;21351;-80
2023/10/23 02:32:18;;;;;;;11.75;8.23;;;;;;;22.64;58.37;99732.16;1732108;82;21801;-81
2023/10/23 02:35:24;;;;;;;18.23;9.28;;;;;;;22.78;57.72;99731.69;1733387;82;21292;-80
2023/10/23 02:38:30;;;;;;;18.87;9.85;;;;;;;22.95;57.13;99745.72;1733663;82;21288;-80
2023/10/23 02:41:37;;;;;;;17.50;9.95;;;;;;;22.81;57.85;99754.26;1732921;82;21331;-80
2023/10/23 02:44:43;;;;;;;14.23;10.38;;;;;;;22.90;57.62;99743.47;1732467;82;21912;-81
2023/10/23 02:47:49;;;;;;;16.30;10.28;;;;;;;22.38;59.55;99737.27;1732200;82;21858;-81
2023/10/23 02:51:02;;;;;;;13.15;8.45;;;;;;;22.34;59.84;99734.73;1732900;82;21387;-79
2023/10/23 02:54:08;;;;;;;14.65;10.03;;;;;;;22.39;59.95;99729.19;1733292;82;22210;-80
2023/10/23 02:57:13;;;;;;;21.77;9.23;;;;;;;22.64;59.15;99729.38;1731949;82;21343;-81
2023/10/23 03:00:21;;;;;;;11.22;8.13;;;;;;;22.44;59.67;99731.48;1733401;82;21920;-81
2023/10/23 03:03:27;;;;;;;18.15;11.05;;;;;;;22.32;60.15;99731.38;1735599;82;21311;-80
2023/10/23 03:06:36;;;;;;;17.67;9.88;;;;;;;22.55;59.67;99728.20;1735333;82;21343;-81
2023/10/23 03:09:43;;;;;;;17.20;10.43;;;;;;;22.27;60.45;99725.22;1726875;83;21273;-81
2023/10/23 03:12:49;;;;;;;17.27;11.00;;;;;;;22.48;59.81;99706.69;1724514;83;21288;-80
2023/10/23 03:15:56;;;;;;;27.75;11.57;;;;;;;23.07;58.23;99716.23;1715071;82;21398;-80
2023/10/23 03:19:05;;;;;;;17.32;10.43;;;;;;;21.95;61.27;99721.03;1700409;84;21312;-81
2023/10/23 03:22:12;;;;;;;15.18;10.05;;;;;;;22.13;60.78;99716.48;1723954;82;21904;-80
2023/10/23 03:25:18;;;;;;;14.25;9.80;;;;;;;23.26;57.37;99698.44;1734920;82;21292;-79
2023/10/23 03:28:23;;;;;;;14.93;10.60;;;;;;;23.47;57.01;99699.31;1734977;82;21336;-80
2023/10/23 03:31:32;;;;;;;16.90;11.48;;;;;;;23.36;56.81;99691.48;1714313;82;21773;-81
2023/10/23 03:34:37;;;;;;;18.85;11.30;;;;;;;23.28;56.84;99705.96;1737140;82;21384;-80
2023/10/23 03:37:43;;;;;;;16.17;11.65;;;;;;;22.65;58.72;99723.24;1730285;83;21943;-80
2023/10/23 03:40:49;;;;;;;21.33;11.68;;;;;;;22.92;58.29;99731.50;1710776;83;21332;-81
2023/10/23 03:43:56;;;;;;;20.70;12.30;;;;;;;22.31;59.67;99728.32;1734237;82;21320;-81
2023/10/23 03:47:04;;;;;;;20.85;12.25;;;;;;;22.57;60.02;99724.58;1710914;82;21331;-81
2023/10/23 03:50:10;;;;;;;19.85;11.20;;;;;;;22.96;58.58;99725.67;1731797;82;21319;-81
2023/10/23 03:53:15;;;;;;;23.83;11.93;;;;;;;21.97;61.11;99722.98;1743331;81;21315;-83
2023/10/23 03:56:22;;;;;;;24.05;11.35;;;;;;;23.08;58.16;99712.88;1740308;82;21296;-81
2023/10/23 03:59:29;;;;;;;25.00;12.00;;;;;;;22.83;58.44;99712.19;1733589;82;21336;-81
2023/10/23 04:02:35;;;;;;;26.33;11.12;;;;;;;22.31;59.61;99706.03;1732174;82;21320;-81
2023/10/23 04:05:48;;;;;;;16.62;10.65;;;;;;;22.66;58.50;99721.56;1732505;82;21308;-82
2023/10/23 04:08:53;;;;;;;19.10;11.05;;;;;;;22.54;59.02;99720.95;1735485;82;21325;-81
2023/10/23 04:11:59;;;;;;;21.12;10.70;;;;;;;22.27;59.30;99719.66;1735495;82;21307;-81
2023/10/23 04:15:04;;;;;;;25.75;11.00;;;;;;;22.39;59.37;99711.08;1736013;82;21324;-81
2023/10/23 04:18:12;;;;;;;31.23;10.30;;;;;;;22.54;58.94;99713.98;1702470;84;21300;-80
2023/10/23 04:21:20;;;;;;;19.00;10.03;;;;;;;22.45;59.63;99708.63;1711518;82;21335;-81
2023/10/23 04:24:27;;;;;;;24.52;10.05;;;;;;;22.49;59.54;99708.91;1725870;83;21711;-82
2023/10/23 04:27:34;;;;;;;23.55;10.32;;;;;;;21.73;61.41;99710.52;1725876;83;21268;-82
2023/10/23 04:30:40;;;;;;;22.93;11.18;;;;;;;22.37;59.59;99704.39;1726206;82;21843;-81
2023/10/23 04:33:47;;;;;;;27.95;10.38;;;;;;;22.09;59.89;99703.33;1713455;82;21305;-82
2023/10/23 04:36:53;;;;;;;18.73;9.38;;;;;;;22.58;59.08;99707.30;1721030;82;21877;-81
2023/10/23 04:39:59;;;;;;;23.22;10.58;;;;;;;22.71;58.80;99711.84;1733971;82;21292;-81
2023/10/23 04:43:04;;;;;;;23.32;9.48;;;;;;;22.96;58.02;99725.67;1733678;82;21320;-82
2023/10/23 04:46:10;;;;;;;17.48;8.73;;;;;;;22.99;57.99;99722.32;1733481;82;21331;-82
2023/10/23 04:49:16;;;;;;;22.77;10.45;;;;;;;23.18;57.54;99722.11;1733232;82;21304;-83
2023/10/23 04:52:23;;;;;;;24.50;10.58;;;;;;;23.30;57.09;99722.45;1733800;82;21336;-82
2023/10/23 04:55:29;;;;;;;25.30;10.25;;;;;;;23.36;56.88;99741.71;1736922;82;21323;-82
2023/10/23 04:58:34;;;;;;;25.75;9.43;;;;;;;23.10;57.78;99732.42;1734421;82;21387;-82
2023/10/23 05:01:40;;;;;;;30.80;10.72;;;;;;;23.15;57.97;99717.10;1735751;82;21327;-82
2023/10/23 05:04:47;;;;;;;30.72;11.33;;;;;;;23.09;58.11;99712.59;1799163;79;21861;-82
2023/10/23 05:07:54;;;;;;;33.25;11.03;;;;;;;23.23;58.02;99721.85;1789637;80;21854;-82
2023/10/23 05:10:58;;;;;;;31.65;11.83;;;;;;;22.76;58.68;99726.91;1792836;80;21280;-82
2023/10/23 05:14:04;;;;;;;27.55;10.95;;;;;;;22.82;59.54;99730.00;1793217;80;21300;-82
2023/10/23 05:17:10;;;;;;;31.68;11.35;;;;;;;23.01;59.34;99740.16;1751410;80;21348;-83
2023/10/23 05:20:17;;;;;;;32.50;10.78;;;;;;;23.25;58.30;99737.22;1750638;81;21819;-83
2023/10/23 05:23:22;;;;;;;34.03;11.63;;;;;;;23.24;58.79;99731.33;1763868;79;21343;-83
2023/10/23 05:26:29;;;;;;;34.18;11.43;;;;;;;23.01;59.24;99738.77;1769109;81;21309;-82
2023/10/23 05:29:35;;;;;;;33.67;13.48;;;;;;;22.86;59.16;99747.31;1791824;79;21798;-83
2023/10/23 05:32:43;;;;;;;34.20;12.00;;;;;;;23.25;58.60;99754.52;1764449;80;21271;-82
2023/10/23 05:35:48;;;;;;;36.83;12.33;;;;;;;23.20;58.04;99746.97;1775827;79;21255;-83
2023/10/23 05:38:53;;;;;;;29.90;11.73;;;;;;;23.06;58.97;99754.16;1769671;79;21270;-83
2023/10/23 05:41:59;;;;;;;30.88;12.45;;;;;;;22.63;59.91;99765.86;1785589;80;21327;-82
2023/10/23 05:45:05;;;;;;;40.15;14.53;;;;;;;22.92;59.52;99767.76;1785067;79;21665;-82
2023/10/23 05:48:10;;;;;;;32.35;12.07;;;;;;;23.21;58.32;99766.77;1791312;79;21276;-82
2023/10/23 05:51:17;;;;;;;24.43;11.03;;;;;;;23.25;58.59;99760.09;1784798;79;21255;-83
2023/10/23 05:54:22;;;;;;;35.65;12.88;;;;;;;23.39;58.30;99764.05;1768587;81;21825;-80
2023/10/23 05:57:28;;;;;;;34.67;13.95;;;;;;;23.29;58.45;99758.41;1778353;79;21312;-82
2023/10/23 06:00:34;;;;;;;37.63;13.13;;;;;;;22.98;59.35;99755.51;1782948;79;21633;-82
2023/10/23 06:03:39;;;;;;;29.82;12.55;;;;;;;23.35;58.83;99762.92;1754134;79;22262;-83
2023/10/23 06:06:47;;;;;;;33.73;13.58;;;;;;;23.30;58.59;99765.70;1749502;80;21300;-83
2023/10/23 06:09:53;;;;;;;30.15;13.45;;;;;;;22.70;61.11;99770.66;1779944;79;21292;-82
2023/10/23 06:12:59;;;;;;;34.98;12.55;;;;;;;23.24;59.67;99769.55;1768146;80;21271;-82
2023/10/23 06:16:09;;;;;;;24.67;13.00;;;;;;;23.01;60.46;99768.92;1776004;79;21343;-82
2023/10/23 06:19:14;;;;;;;23.85;12.47;;;;;;;22.57;61.97;99773.91;1790509;79;21269;-82
2023/10/23 06:22:20;;;;;;;29.70;13.35;;;;;;;23.00;60.82;99779.77;1783664;79;21292;-82
2023/10/23 06:25:26;;;;;;;29.95;12.60;;;;;;;22.94;61.62;99773.89;1792480;79;21246;-82
2023/10/23 06:28:31;;;;;;;28.30;12.78;;;;;;;23.34;60.70;99790.55;1782894;79;21304;-82
2023/10/23 06:31:38;;;;;;;33.53;13.68;;;;;;;23.82;59.19;99784.30;1776494;79;21249;-82
2023/10/23 06:34:43;;;;;;;33.30;12.13;;;;;;;23.16;60.93;99786.28;1773762;80;21249;-82
2023/10/23 06:37:50;;;;;;;30.57;13.45;;;;;;;23.05;61.50;99779.80;1779057;79;21259;-83
2023/10/23 06:40:57;;;;;;;30.23;14.05;;;;;;;23.37;61.10;99786.63;1783533;79;21860;-83
2023/10/23 06:44:02;;;;;;;24.75;13.15;;;;;;;23.18;61.90;99782.65;1779327;78;21272;-83
2023/10/23 06:47:10;;;;;;;29.20;15.13;;;;;;;23.78;60.37;99780.37;1780725;79;21323;-81
2023/10/23 06:50:15;;;;;;;31.73;14.03;;;;;;;23.68;60.85;99782.02;1776395;79;21303;-82
2023/10/23 06:53:24;;;;;;;35.20;14.23;;;;;;;24.03;60.09;99787.37;1776108;79;21310;-82
2023/10/23 06:56:29;;;;;;;26.73;13.18;;;;;;;24.56;58.48;99772.62;1786397;79;21283;-82
2023/10/23 06:59:36;;;;;;;30.48;13.83;;;;;;;24.95;57.51;99769.17;1784094;79;21791;-82
2023/10/23 07:02:41;;;;;;;31.30;14.60;;;;;;;25.20;56.60;99773.86;1785660;79;21261;-82
2023/10/23 07:05:50;;;;;;;32.33;14.90;;;;;;;25.11;56.45;99768.02;1773620;79;21272;-82
2023/10/23 07:08:56;;;;;;;27.40;14.15;;;;;;;25.16;56.43;99769.95;1773487;79;21292;-83
2023/10/23 07:12:01;;;;;;;27.62;14.15;;;;;;;24.51;58.28;99771.20;1765216;79;21267;-82
2023/10/23 07:15:08;;;;;;;30.90;15.15;;;;;;;24.76;57.53;99777.89;1738587;81;21303;-82
2023/10/23 07:18:13;;;;;;;26.00;14.18;;;;;;;25.20;56.54;99781.69;1706873;82;21811;-83
2023/10/23 07:21:11;;;;;;;33.23;15.48;;;;;;;26.00;54.17;99776.53;1780342;79;21271;-82
2023/10/23 07:24:04;;;;;;;27.17;13.88;;;;;;;26.22;53.35;99785.33;1767451;79;21858;-85
2023/10/23 07:26:50;;;;;;;38.25;14.78;;;;;;;26.20;53.32;99778.33;1773916;79;21279;-82
2023/10/23 07:29:42;;;;;;;25.55;14.03;;;;;;;26.23;53.07;99772.15;1781510;79;21359;-86
2023/10/23 07:32:35;;;;;;;33.50;13.90;;;;;;;26.37;52.87;99779.33;1775987;79;21280;-83
2023/10/23 07:35:41;;;;;;;34.20;15.48;;;;;;;25.99;54.08;99786.06;1790316;79;21813;-83
2023/10/23 07:38:50;;;;;;;32.17;14.45;;;;;;;26.17;53.42;99788.17;1788804;78;21260;-83
2023/10/23 07:41:55;;;;;;;33.23;13.25;;;;;;;25.98;53.36;99790.00;1765891;79;21277;-83
2023/10/23 07:45:00;;;;;;;32.45;15.10;;;;;;;25.41;54.87;99783.02;1773401;79;22245;-88
2023/10/23 07:48:06;;;;;;;28.47;15.95;;;;;;;24.89;56.21;99785.14;1780805;79;21677;-87
2023/10/23 07:51:11;;;;;;;33.90;16.55;;;;;;;25.27;55.03;99781.97;1743540;81;22243;-86
2023/10/23 07:54:17;;;;;;;22.82;13.93;;;;;;;26.30;52.58;99789.48;1714257;82;21273;-88
2023/10/23 07:57:22;;;;;;;29.52;15.18;;;;;;;25.93;53.11;99786.67;1717871;82;21280;-87
2023/10/23 08:00:29;;;;;;;33.65;15.28;;;;;;;26.88;51.00;99776.89;1717118;82;21347;-83
2023/10/23 08:03:35;;;;;;;25.23;13.05;;;;;;;26.79;51.06;99779.23;1723998;82;21367;-83
2023/10/23 08:06:41;;;;;;;25.10;14.15;;;;;;;26.94;50.47;99776.27;1775838;79;21301;-83
2023/10/23 08:09:48;;;;;;;33.83;14.38;;;;;;;26.80;50.30;99777.53;1785223;79;21288;-82
2023/10/23 08:12:53;;;;;;;26.00;13.22;;;;;;;26.84;50.03;99777.20;1783641;79;21263;-82
2023/10/23 08:15:59;;;;;;;29.70;14.07;;;;;;;26.79;49.21;99781.47;1780582;79;21346;-83
2023/10/23 08:19:05;;;;;;;23.77;12.28;;;;;;;26.53;49.27;99788.45;1777479;79;21336;-86
2023/10/23 08:22:11;;;;;;;25.40;12.85;;;;;;;26.28;49.47;99795.09;1778720;79;21924;-82
2023/10/23 08:25:18;;;;;;;23.45;13.03;;;;;;;26.29;49.48;99789.19;1786240;79;21284;-83
2023/10/23 08:28:24;;;;;;;27.77;14.28;;;;;;;26.23;49.07;99791.20;1773528;79;21261;-88
2023/10/23 08:31:31;;;;;;;25.90;13.45;;;;;;;26.51;48.48;99798.58;1766576;79;21299;-87
2023/10/23 08:34:39;;;;;;;33.95;13.45;;;;;;;26.63;47.68;99789.22;1759965;79;21339;-87
2023/10/23 08:37:47;;;;;;;20.45;12.65;;;;;;;26.67;47.59;99788.88;1791369;79;21393;-82
2023/10/23 08:40:54;;;;;;;23.60;12.00;;;;;;;26.60;47.75;99785.59;1760704;79;21299;-83
2023/10/23 08:44:01;;;;;;;26.68;11.48;;;;;;;26.94;47.13;99787.48;1764688;79;21652;-86
2023/10/23 08:47:05;;;;;;;21.95;11.73;;;;;;;26.77;47.09;99782.32;1779358;79;21249;-84
2023/10/23 08:50:11;;;;;;;22.27;11.68;;;;;;;26.54;47.51;99778.91;1743647;81;21924;-82
2023/10/23 08:53:16;;;;;;;22.75;11.75;;;;;;;26.81;46.26;99779.77;1782019;79;21315;-82
2023/10/23 08:56:22;;;;;;;21.07;10.03;;;;;;;27.28;45.27;99780.94;1780983;79;21959;-83
2023/10/23 08:59:27;;;;;;;22.52;10.48;;;;;;;27.04;45.76;99784.56;1784636;79;21253;-87
2023/10/23 09:02:33;;;;;;;19.82;10.08;;;;;;;27.05;45.52;99782.02;1788085;79;21288;-82
2023/10/23 09:05:40;;;;;;;25.68;11.28;;;;;;;26.43;46.58;99780.97;1756698;79;21423;-82
2023/10/23 09:08:48;;;;;;;22.15;10.23;;;;;;;26.99;45.42;99777.60;1779414;79;21253;-88
2023/10/23 09:11:55;;;;;;;22.70;9.00;;;;;;;26.56;45.92;99783.10;1781034;79;21276;-88
2023/10/23 09:15:03;;;;;;;17.65;8.13;;;;;;;26.91;44.94;99779.11;1782350;79;21196;-87
2023/10/23 09:18:14;;;;;;;16.23;8.78;;;;;;;27.19;43.90;99780.19;1783651;79;21351;-83
2023/10/23 09:21:22;;;;;;;18.48;8.95;;;;;;;27.14;44.02;99770.43;1780167;79;21658;-83
2023/10/23 09:24:29;;;;;;;20.82;9.00;;;;;;;26.96;43.91;99777.65;1771832;79;21279;-82
2023/10/23 09:27:28;;;;;;;22.67;7.97;;;;;;;27.48;43.28;99772.28;1793478;79;21247;-86
2023/10/23 09:30:24;;;;;;;18.77;8.65;;;;;;;27.53;43.15;99776.42;1782219;79;21798;-86
2023/10/23 09:33:33;;;;;;;14.23;7.70;;;;;;;27.83;42.51;99778.55;1784303;79;21272;-85
2023/10/23 09:36:40;;;;;;;12.88;6.67;;;;;;;27.82;42.00;99771.27;1771945;78;21618;-83
2023/10/23 09:39:46;;;;;;;16.00;8.20;;;;;;;27.85;41.60;99775.69;1730834;81;21272;-83
2023/10/23 09:42:54;;;;;;;17.80;6.97;;;;;;;27.86;41.06;99769.52;1718536;82;21260;-83
2023/10/23 09:46:00;;;;;;;10.40;6.28;;;;;;;28.06;40.41;99773.98;1717996;82;21316;-84
2023/10/23 09:49:06;;;;;;;10.35;6.00;;;;;;;27.93;40.08;99764.34;1784551;79;21324;-83
2023/10/23 09:52:11;;;;;;;15.85;5.92;;;;;;;27.92;39.97;99759.86;1783788;79;21339;-83
2023/10/23 09:55:16;;;;;;;13.35;5.70;;;;;;;28.12;39.59;99758.13;1795924;79;21625;-82
2023/10/23 09:58:23;;;;;;;13.28;5.92;;;;;;;28.33;38.65;99749.37;1798731;79;21248;-83
2023/10/23 10:01:29;;;;;;;13.48;5.95;;;;;;;28.53;38.49;99750.44;1798222;79;21236;-86
2023/10/23 10:04:44;;;;;;;16.23;5.90;;;;;;;28.79;38.35;99749.37;1763183;79;21928;-85
2023/10/23 10:08:12;;;;;;;10.80;5.67;;;;;;;28.90;37.43;99750.03;1782831;79;22150;-83
2023/10/23 10:11:29;;;;;;;15.68;5.35;;;;;;;28.76;37.47;99750.84;1754124;81;21311;-84
2023/10/23 10:14:34;;;;;;;10.32;3.92;;;;;;;28.98;36.65;99749.31;1763069;80;21276;-83
2023/10/23 10:17:42;;;;;;;10.30;4.17;;;;;;;29.08;35.83;99746.86;1777438;79;21849;-83
2023/10/23 10:20:51;;;;;;;10.53;4.25;;;;;;;29.29;35.39;99746.13;1780344;79;21284;-83
2023/10/23 10:23:58;;;;;;;9.90;3.40;;;;;;;29.07;35.77;99748.84;1765187;79;21872;-82
2023/10/23 10:27:04;;;;;;;9.83;3.60;;;;;;;28.98;35.28;99740.87;1773667;79;21331;-83
2023/10/23 10:30:13;;;;;;;6.10;3.00;;;;;;;28.77;35.40;99734.79;1791225;79;21275;-86
2023/10/23 10:33:30;;;;;;;10.23;3.15;;;;;;;28.72;33.94;99739.94;1699069;83;21448;-83
2023/10/23 10:36:37;;;;;;;5.37;2.62;;;;;;;28.75;34.15;99736.52;1706726;82;21317;-82
2023/10/23 10:40:03;;;;;;;8.73;2.70;;;;;;;28.94;33.23;99731.38;1689116;84;21274;-86
2023/10/23 10:43:08;;;;;;;11.08;2.65;;;;;;;28.89;33.31;99735.13;1749954;81;21307;-83
2023/10/23 10:46:38;;;;;;;5.42;2.20;;;;;;;29.15;33.21;99728.41;1711060;81;21340;-85
2023/10/23 10:49:44;;;;;;;10.85;2.50;;;;;;;28.97;33.37;99737.80;1707339;83;21823;-84
2023/10/23 10:52:51;;;;;;;5.83;2.20;;;;;;;29.17;32.53;99728.95;1687506;84;21341;-84
2023/10/23 10:55:56;;;;;;;5.83;1.87;;;;;;;29.07;32.97;99724.91;1743202;81;21333;-85
2023/10/23 10:59:04;;;;;;;5.15;2.33;;;;;;;29.02;32.46;99723.62;1690119;81;21374;-84
2023/10/23 11:02:10;;;;;;;5.78;2.17;;;;;;;29.27;32.04;99731.55;1738919;81;21299;-82
2023/10/23 11:05:21;;;;;;;3.58;1.45;;;;;;;28.96;32.62;99727.69;1742371;81;21548;-86
2023/10/23 11:08:30;;;;;;;4.17;1.30;;;;;;;28.95;32.12;99731.66;1761427;81;21370;-84
2023/10/23 11:11:36;;;;;;;4.45;1.35;;;;;;;28.81;31.72;99729.38;1747534;81;22352;-81
2023/10/23 11:14:44;;;;;;;8.10;1.75;;;;;;;28.88;31.59;99726.39;1740926;81;21313;-82
2023/10/23 11:17:50;;;;;;;22.95;2.10;;;;;;;28.80;31.46;99729.13;1751311;81;21319;-84
2023/10/23 11:20:57;;;;;;;4.08;1.65;;;;;;;29.00;31.27;99725.92;1750899;81;21908;-82
2023/10/23 11:24:04;;;;;;;3.98;1.67;;;;;;;29.09;31.55;99724.05;1752834;81;22420;-85
2023/10/23 11:27:10;;;;;;;4.70;1.00;;;;;;;29.23;30.98;99726.28;1754982;81;21358;-86
2023/10/23 11:30:16;;;;;;;6.30;1.10;;;;;;;29.02;30.17;99730.08;1742628;81;21258;-85
2023/10/23 11:33:22;;;;;;;2.58;1.10;;;;;;;29.30;29.42;99717.39;1706202;82;21292;-86
2023/10/23 11:36:28;;;;;;;5.33;1.50;;;;;;;29.29;28.96;99726.42;1712876;81;21300;-86
2023/10/23 11:39:36;;;;;;;2.60;1.40;;;;;;;29.40;29.05;99727.02;1735411;82;21283;-83
2023/10/23 11:42:56;;;;;;;2.55;1.15;;;;;;;29.35;29.42;99729.12;1766129;80;21335;-85
2023/10/23 11:46:04;;;;;;;4.20;0.98;;;;;;;29.46;29.05;99733.40;1782219;79;21300;-83
2023/10/23 11:49:09;;;;;;;2.75;1.62;;;;;;;29.21;29.33;99725.74;1791315;79;21697;-83
2023/10/23 11:52:15;;;;;;;4.47;1.00;;;;;;;28.88;29.76;99726.39;1722132;82;21393;-85
2023/10/23 11:55:15;;;;;;;5.43;0.97;;;;;;;28.99;29.58;99731.30;1737061;82;22240;-84
2023/10/23 11:58:21;;;;;;;2.80;1.07;;;;;;;29.17;29.12;99720.50;1773345;79;21962;-83
2023/10/23 12:01:28;;;;;;;7.45;1.20;;;;;;;29.27;28.55;99731.55;1775383;79;21882;-83
2023/10/23 12:04:35;;;;;;;5.47;0.88;;;;;;;29.42;28.54;99732.36;1694870;83;21330;-84
2023/10/23 12:07:42;;;;;;;5.08;1.22;;;;;;;29.30;28.58;99730.06;1729437;81;21351;-83
2023/10/23 12:10:48;;;;;;;2.08;0.88;;;;;;;29.26;28.50;99728.45;1692268;83;21352;-82
2023/10/23 12:13:54;;;;;;;4.00;1.20;;;;;;;28.95;28.79;99723.22;1780956;79;21260;-84
2023/10/23 12:17:00;;;;;;;7.08;1.20;;;;;;;29.04;28.87;99721.34;1781297;79;21290;-84
2023/10/23 12:20:08;;;;;;;6.12;1.50;;;;;;;29.05;28.88;99720.19;1769273;79;21321;-85
2023/10/23 12:23:13;;;;;;;1.95;1.02;;;;;;;28.62;29.20;99723.27;1765134;79;21850;-84
2023/10/23 12:26:19;;;;;;;1.95;1.00;;;;;;;28.75;29.22;99726.67;1681414;84;21382;-83
2023/10/23 12:29:26;;;;;;;2.65;0.80;;;;;;;28.71;29.18;99721.40;1758443;81;21316;-83
2023/10/23 12:32:33;;;;;;;5.83;1.30;;;;;;;28.75;28.95;99725.84;1720191;83;21355;-83
2023/10/23 12:35:40;;;;;;;4.55;1.62;;;;;;;28.90;28.65;99731.73;1724991;82;21309;-83
2023/10/23 12:38:47;;;;;;;3.52;1.30;;;;;;;28.89;28.51;99723.87;1718079;82;21722;-83
2023/10/23 12:41:52;;;;;;;1.75;1.07;;;;;;;29.00;28.26;99714.66;1725750;82;21318;-82
2023/10/23 12:44:57;;;;;;;6.55;1.40;;;;;;;29.16;28.10;99721.63;1725995;81;21267;-83
2023/10/23 12:48:02;;;;;;;4.80;1.22;;;;;;;29.26;27.91;99728.45;1779486;80;21303;-85
2023/10/23 12:51:07;;;;;;;7.33;1.77;;;;;;;29.16;28.03;99725.84;1730992;82;21351;-82
2023/10/23 12:54:12;;;;;;;3.75;1.42;;;;;;;29.11;28.14;99722.31;1733348;82;21630;-84
2023/10/23 12:57:18;;;;;;;3.05;1.45;;;;;;;28.82;28.75;99720.62;1729696;83;21335;-82
2023/10/23 13:00:24;;;;;;;4.20;1.37;;;;;;;28.86;28.53;99724.48;1723049;83;21293;-83
2023/10/23 13:03:31;;;;;;;3.60;1.30;;;;;;;28.69;28.69;99715.23;1756216;81;21280;-83
2023/10/23 13:06:37;;;;;;;4.45;1.32;;;;;;;28.51;28.81;99712.78;1757885;80;21314;-82
2023/10/23 13:09:44;;;;;;;1.42;0.70;;;;;;;28.69;27.80;99711.59;1781351;79;21244;-84
2023/10/23 13:12:49;;;;;;;2.05;0.90;;;;;;;28.57;27.08;99714.09;1798899;79;21303;-82
2023/10/23 13:15:56;;;;;;;2.45;1.00;;;;;;;28.54;27.41;99708.49;1795227;79;21729;-84
2023/10/23 13:19:01;;;;;;;7.12;1.00;;;;;;;28.40;27.47;99711.28;1723815;83;21308;-82
2023/10/23 13:22:06;;;;;;;3.42;1.10;;;;;;;28.50;27.51;99711.09;1779135;79;21300;-81
2023/10/23 13:25:14;;;;;;;5.22;1.00;;;;;;;28.48;27.44;99713.97;1768808;81;21277;-82
2023/10/23 13:28:19;;;;;;;2.85;1.00;;;;;;;28.34;27.63;99711.12;1769004;81;21264;-85
2023/10/23 13:31:26;;;;;;;2.95;1.32;;;;;;;28.45;27.47;99711.76;1782417;79;21275;-83
2023/10/23 13:34:31;;;;;;;2.60;0.90;;;;;;;28.46;27.66;99708.62;1767655;79;21285;-82
2023/10/23 13:37:38;;;;;;;2.47;1.10;;;;;;;28.33;27.82;99716.45;1760622;79;21296;-85
2023/10/23 13:40:45;;;;;;;6.72;1.32;;;;;;;28.05;28.06;99723.13;1687247;84;21345;-82
2023/10/23 13:43:51;;;;;;;2.30;1.30;;;;;;;27.96;28.14;99717.37;1699895;84;21846;-85
2023/10/23 13:46:57;;;;;;;2.35;1.00;;;;;;;27.83;28.59;99716.73;1760794;81;21307;-84
2023/10/23 13:50:04;;;;;;;4.37;1.20;;;;;;;27.67;28.76;99718.92;1771904;81;21288;-84
2023/10/23 13:53:12;;;;;;;5.60;1.25;;;;;;;27.50;28.95;99708.20;1764954;81;21287;-83
2023/10/23 13:56:17;;;;;;;1.40;0.80;;;;;;;27.38;29.28;99713.41;1749880;81;21307;-82
2023/10/23 13:59:23;;;;;;;2.22;1.05;;;;;;;27.24;29.45;99716.99;1796550;80;21618;-84
2023/10/23 14:02:28;;;;;;;3.37;1.20;;;;;;;27.38;29.39;99724.65;1769187;80;21287;-85
2023/10/23 14:05:37;;;;;;;2.30;1.50;;;;;;;27.09;29.88;99724.19;1770357;81;21319;-83
2023/10/23 14:08:42;;;;;;;2.77;1.20;;;;;;;27.16;29.63;99724.67;1770292;81;21244;-84
2023/10/23 14:11:50;;;;;;;2.47;1.40;;;;;;;26.99;30.04;99729.33;1783503;80;21319;-83
2023/10/23 14:14:57;;;;;;;1.65;1.25;;;;;;;26.85;30.12;99731.75;1726023;82;21321;-82
2023/10/23 14:18:04;;;;;;;4.17;1.77;;;;;;;26.71;30.40;99726.02;1797359;79;21265;-84
2023/10/23 14:21:12;;;;;;;2.98;1.55;;;;;;;26.64;30.52;99727.78;1772616;79;21886;-82
2023/10/23 14:24:19;;;;;;;4.58;1.87;;;;;;;26.44;30.96;99730.77;1789777;79;21311;-83